Time;durP1;ratioP1;P1;durP2;ratioP2;P2;SDS_P1;SDS_P2;PMS_P1;PMS_P2;Temp;Humidity;BMP_temperature;BMP_pressure;BME280_temperature;BME280_humidity;BME280_pressure;Samples;Min_cycle;Max_cycle;Signal;HPM_P1;HPM_P2
2023/12/12 00:01:34;;;;;;;9.33;3.00;;;;;;;;;;5030637;28;20030;-64
2023/12/12 00:03:59;;;;;;;9.50;3.43;;;;;;;;;;5030379;28;20092;-63
2023/12/12 00:06:25;;;;;;;9.73;3.20;;;;;;;;;;5031893;28;20022;-67
2023/12/12 00:08:50;;;;;;;11.60;3.70;;;;;;;;;;5038318;28;20061;-66
2023/12/12 00:11:15;;;;;;;13.37;3.60;;;;;;;;;;5031304;28;20789;-66
2023/12/12 00:13:41;;;;;;;8.50;2.77;;;;;;;;;;5030749;28;20116;-66
2023/12/12 00:16:07;;;;;;;6.33;2.63;;;;;;;;;;5037113;28;20052;-68
2023/12/12 00:18:32;;;;;;;13.63;3.60;;;;;;;;;;5029657;28;20032;-69
2023/12/12 00:20:58;;;;;;;9.77;3.20;;;;;;;;;;5032903;28;20029;-67
2023/12/12 00:23:23;;;;;;;11.40;3.07;;;;;;;;;;5033584;28;20034;-67
2023/12/12 00:25:48;;;;;;;10.27;3.53;;;;;;;;;;5035216;28;20033;-67
2023/12/12 00:28:13;;;;;;;10.20;3.47;;;;;;;;;;5036345;28;20112;-67
2023/12/12 00:30:39;;;;;;;7.83;3.20;;;;;;;;;;5037415;28;20366;-67
2023/12/12 00:33:04;;;;;;;9.00;3.30;;;;;;;;;;5037000;28;20033;-67
2023/12/12 00:35:29;;;;;;;10.90;3.33;;;;;;;;;;5034873;28;20067;-67
2023/12/12 00:37:54;;;;;;;12.50;3.33;;;;;;;;;;5031415;28;20045;-67
2023/12/12 00:40:20;;;;;;;9.47;3.50;;;;;;;;;;5037585;28;20388;-66
2023/12/12 00:42:45;;;;;;;9.97;3.30;;;;;;;;;;5035131;28;20037;-67
2023/12/12 00:45:10;;;;;;;8.10;2.70;;;;;;;;;;5030824;28;20049;-67
2023/12/12 00:47:35;;;;;;;13.87;3.60;;;;;;;;;;5037189;28;20025;-66
2023/12/12 00:50:01;;;;;;;9.10;3.10;;;;;;;;;;5031882;28;20436;-67
2023/12/12 00:52:27;;;;;;;10.87;3.10;;;;;;;;;;5035590;28;20478;-67
2023/12/12 00:54:52;;;;;;;7.93;3.20;;;;;;;;;;5034248;28;20075;-67
2023/12/12 00:57:17;;;;;;;8.13;3.50;;;;;;;;;;5029972;28;20064;-67
2023/12/12 00:59:42;;;;;;;9.10;3.57;;;;;;;;;;5035500;28;20037;-66
2023/12/12 01:02:08;;;;;;;11.03;3.23;;;;;;;;;;5032278;28;20062;-66
2023/12/12 01:04:36;;;;;;;10.90;3.80;;;;;;;;;;5035364;28;20397;-67
2023/12/12 01:07:01;;;;;;;10.50;3.43;;;;;;;;;;5031849;28;20060;-66
2023/12/12 01:09:28;;;;;;;9.80;3.20;;;;;;;;;;5028361;28;20100;-67
2023/12/12 01:11:53;;;;;;;10.70;3.23;;;;;;;;;;5033556;28;20084;-67
2023/12/12 01:14:18;;;;;;;10.83;3.07;;;;;;;;;;5031666;28;20061;-66
2023/12/12 01:16:43;;;;;;;9.73;3.50;;;;;;;;;;5038310;28;20041;-63
2023/12/12 01:19:08;;;;;;;8.37;3.23;;;;;;;;;;5036726;28;20035;-64
2023/12/12 01:21:34;;;;;;;11.07;3.60;;;;;;;;;;5018222;28;20537;-65
2023/12/12 01:23:59;;;;;;;10.47;3.40;;;;;;;;;;5038700;28;20029;-63
2023/12/12 01:26:25;;;;;;;8.73;3.20;;;;;;;;;;5042049;28;20025;-63
2023/12/12 01:28:50;;;;;;;11.00;3.40;;;;;;;;;;5038604;28;20049;-62
2023/12/12 01:31:16;;;;;;;14.83;3.60;;;;;;;;;;5039474;28;20100;-63
2023/12/12 01:33:42;;;;;;;12.20;3.23;;;;;;;;;;5042766;28;20405;-64
2023/12/12 01:36:07;;;;;;;15.33;4.27;;;;;;;;;;5037735;28;20039;-63
2023/12/12 01:38:33;;;;;;;13.10;3.70;;;;;;;;;;5038751;28;20123;-64
2023/12/12 01:40:58;;;;;;;14.30;4.73;;;;;;;;;;5036710;28;20047;-65
2023/12/12 01:43:24;;;;;;;11.17;4.10;;;;;;;;;;5037694;28;20124;-64
2023/12/12 01:45:49;;;;;;;9.17;3.87;;;;;;;;;;5037200;28;20116;-63
2023/12/12 01:48:15;;;;;;;10.93;4.03;;;;;;;;;;5035970;28;20021;-62
2023/12/12 01:50:40;;;;;;;11.87;3.83;;;;;;;;;;5040714;28;20036;-62
2023/12/12 01:53:06;;;;;;;13.73;4.30;;;;;;;;;;5033653;28;20064;-63
2023/12/12 01:55:31;;;;;;;14.40;4.70;;;;;;;;;;5035040;28;20417;-63
2023/12/12 01:57:57;;;;;;;17.70;5.30;;;;;;;;;;5033209;28;20590;-63
2023/12/12 02:00:22;;;;;;;16.57;4.40;;;;;;;;;;5035564;28;20094;-64
2023/12/12 02:02:48;;;;;;;14.30;4.77;;;;;;;;;;5021808;28;20029;-65
2023/12/12 02:05:14;;;;;;;14.47;4.90;;;;;;;;;;5029587;28;20022;-63
2023/12/12 02:07:40;;;;;;;12.80;4.87;;;;;;;;;;5034479;28;20120;-64
2023/12/12 02:10:06;;;;;;;13.10;5.20;;;;;;;;;;5033866;28;20637;-64
2023/12/12 02:12:32;;;;;;;14.53;5.27;;;;;;;;;;5034177;28;20057;-62
2023/12/12 02:14:57;;;;;;;16.23;5.20;;;;;;;;;;5036983;28;20126;-62
2023/12/12 02:17:22;;;;;;;15.30;5.27;;;;;;;;;;5033589;28;20466;-63
2023/12/12 02:19:47;;;;;;;16.10;5.93;;;;;;;;;;5031232;28;20014;-64
2023/12/12 02:22:13;;;;;;;33.13;6.70;;;;;;;;;;5037407;28;20125;-64
2023/12/12 02:24:38;;;;;;;16.87;5.77;;;;;;;;;;5037621;28;20021;-65
2023/12/12 02:27:03;;;;;;;14.63;5.47;;;;;;;;;;5034116;28;20592;-67
2023/12/12 02:29:29;;;;;;;18.93;5.67;;;;;;;;;;5035605;28;20422;-67
2023/12/12 02:31:54;;;;;;;22.27;6.03;;;;;;;;;;5035666;28;20034;-66
2023/12/12 02:34:20;;;;;;;17.60;6.20;;;;;;;;;;5038575;28;20033;-67
2023/12/12 02:36:45;;;;;;;23.23;6.10;;;;;;;;;;5036964;28;20021;-66
2023/12/12 02:39:11;;;;;;;13.63;5.27;;;;;;;;;;5036245;28;20044;-66
2023/12/12 02:41:36;;;;;;;20.20;6.40;;;;;;;;;;5040845;28;20044;-66
2023/12/12 02:44:01;;;;;;;20.17;6.87;;;;;;;;;;5038682;28;20407;-66
2023/12/12 02:46:27;;;;;;;22.03;6.80;;;;;;;;;;5039091;28;20040;-66
2023/12/12 02:48:52;;;;;;;18.77;6.80;;;;;;;;;;5037783;28;20040;-67
2023/12/12 02:51:17;;;;;;;23.40;6.87;;;;;;;;;;5037037;28;20049;-66
2023/12/12 02:53:43;;;;;;;18.00;6.27;;;;;;;;;;5036205;28;20111;-67
2023/12/12 02:56:08;;;;;;;22.00;7.17;;;;;;;;;;5038331;28;20033;-66
2023/12/12 02:58:33;;;;;;;22.20;7.13;;;;;;;;;;5035272;28;20377;-66
2023/12/12 03:00:58;;;;;;;22.87;6.23;;;;;;;;;;5038398;28;20530;-66
2023/12/12 03:03:24;;;;;;;23.03;6.97;;;;;;;;;;5032132;28;20029;-66
2023/12/12 03:05:49;;;;;;;26.10;7.30;;;;;;;;;;5037059;28;20071;-66
2023/12/12 03:08:14;;;;;;;23.80;6.83;;;;;;;;;;5035583;28;20108;-66
2023/12/12 03:10:39;;;;;;;20.93;6.67;;;;;;;;;;5036161;28;20037;-66
2023/12/12 03:13:05;;;;;;;20.03;6.97;;;;;;;;;;5033243;28;20111;-67
2023/12/12 03:15:30;;;;;;;17.93;7.13;;;;;;;;;;5034303;28;20179;-66
2023/12/12 03:17:55;;;;;;;25.13;8.03;;;;;;;;;;5030225;28;20049;-66
2023/12/12 03:20:21;;;;;;;28.77;8.13;;;;;;;;;;5032932;28;20068;-67
2023/12/12 03:22:47;;;;;;;23.27;7.50;;;;;;;;;;5039955;28;20048;-67
2023/12/12 03:25:13;;;;;;;20.70;7.67;;;;;;;;;;5033198;28;20029;-66
2023/12/12 03:27:38;;;;;;;22.80;7.23;;;;;;;;;;5033353;28;20043;-65
2023/12/12 03:30:03;;;;;;;26.00;8.53;;;;;;;;;;5039808;28;21013;-66
2023/12/12 03:32:29;;;;;;;30.30;8.33;;;;;;;;;;5038746;28;20040;-66
2023/12/12 03:34:54;;;;;;;25.40;7.80;;;;;;;;;;5036097;28;20454;-66
2023/12/12 03:37:19;;;;;;;26.03;8.53;;;;;;;;;;5034390;28;20115;-64
2023/12/12 03:39:45;;;;;;;25.77;8.17;;;;;;;;;;5037913;28;20045;-63
2023/12/12 03:42:10;;;;;;;22.07;8.17;;;;;;;;;;5034910;28;20045;-63
2023/12/12 03:44:35;;;;;;;27.50;8.67;;;;;;;;;;5035801;28;20032;-65
2023/12/12 03:47:00;;;;;;;28.67;9.50;;;;;;;;;;5038083;28;20087;-62
2023/12/12 03:49:26;;;;;;;21.47;7.63;;;;;;;;;;5036500;28;20036;-66
2023/12/12 03:51:51;;;;;;;27.03;8.80;;;;;;;;;;5036232;28;20073;-66
2023/12/12 03:54:16;;;;;;;18.70;8.03;;;;;;;;;;5035523;28;20033;-66
2023/12/12 03:56:41;;;;;;;26.70;8.70;;;;;;;;;;5035198;28;20076;-67
2023/12/12 03:59:07;;;;;;;30.53;8.77;;;;;;;;;;5036183;28;20094;-62
2023/12/12 04:01:32;;;;;;;23.57;8.13;;;;;;;;;;5036509;28;20033;-62
2023/12/12 04:03:58;;;;;;;32.53;8.30;;;;;;;;;;5033066;28;20437;-64
2023/12/12 04:06:23;;;;;;;27.10;8.40;;;;;;;;;;5034910;28;20041;-63
2023/12/12 04:08:49;;;;;;;29.53;9.70;;;;;;;;;;5037299;28;20037;-63
2023/12/12 04:11:14;;;;;;;32.57;10.23;;;;;;;;;;5032074;28;20029;-62
2023/12/12 04:13:39;;;;;;;29.00;9.53;;;;;;;;;;5029712;28;20037;-63
2023/12/12 04:16:05;;;;;;;31.07;10.63;;;;;;;;;;5028970;28;20045;-62
2023/12/12 04:18:30;;;;;;;31.33;9.53;;;;;;;;;;5031731;28;20523;-63
2023/12/12 04:20:55;;;;;;;27.33;9.73;;;;;;;;;;5038118;28;20072;-62
2023/12/12 04:23:20;;;;;;;32.50;10.00;;;;;;;;;;5029120;28;20037;-64
2023/12/12 04:25:46;;;;;;;41.53;10.90;;;;;;;;;;5028691;28;20417;-64
2023/12/12 04:28:11;;;;;;;32.23;10.13;;;;;;;;;;5035797;28;20059;-62
2023/12/12 04:30:36;;;;;;;35.00;10.93;;;;;;;;;;5032593;28;20855;-61
2023/12/12 04:33:01;;;;;;;33.27;10.17;;;;;;;;;;5036515;28;20106;-62
2023/12/12 04:35:27;;;;;;;33.00;11.43;;;;;;;;;;5030613;28;20115;-64
2023/12/12 04:37:52;;;;;;;31.50;11.00;;;;;;;;;;5036710;28;20032;-63
2023/12/12 04:40:17;;;;;;;31.17;10.63;;;;;;;;;;5042927;28;20115;-63
2023/12/12 04:42:42;;;;;;;34.00;10.73;;;;;;;;;;5033732;28;20048;-62
2023/12/12 04:45:08;;;;;;;25.83;9.83;;;;;;;;;;5036813;28;20033;-62
2023/12/12 04:47:33;;;;;;;27.90;9.43;;;;;;;;;;5034508;28;20090;-63
2023/12/12 04:49:58;;;;;;;34.00;9.67;;;;;;;;;;5035184;28;20530;-63
2023/12/12 04:52:24;;;;;;;27.83;9.47;;;;;;;;;;5036903;28;20044;-64
2023/12/12 04:54:49;;;;;;;28.00;9.80;;;;;;;;;;5035297;28;20122;-64
2023/12/12 04:57:14;;;;;;;31.00;9.70;;;;;;;;;;5038107;28;20363;-63
2023/12/12 04:59:39;;;;;;;34.63;11.00;;;;;;;;;;5034624;28;20048;-63
2023/12/12 05:02:05;;;;;;;30.73;10.87;;;;;;;;;;5033251;28;20041;-63
2023/12/12 05:04:30;;;;;;;39.03;11.60;;;;;;;;;;5033162;28;20105;-64
2023/12/12 05:06:55;;;;;;;34.83;11.90;;;;;;;;;;5032635;28;20077;-64
2023/12/12 05:09:20;;;;;;;29.57;11.00;;;;;;;;;;5032886;28;20045;-62
2023/12/12 05:11:46;;;;;;;32.17;11.33;;;;;;;;;;5033763;28;20501;-62
2023/12/12 05:14:14;;;;;;;41.63;12.93;;;;;;;;;;5033119;28;20541;-62
2023/12/12 05:16:39;;;;;;;37.33;12.47;;;;;;;;;;5032095;28;20702;-61
2023/12/12 05:19:04;;;;;;;36.73;12.47;;;;;;;;;;5033523;28;20033;-62
2023/12/12 05:21:29;;;;;;;34.00;11.77;;;;;;;;;;5030448;28;20129;-63
2023/12/12 05:23:55;;;;;;;35.70;11.40;;;;;;;;;;5026555;28;20029;-64
2023/12/12 05:26:20;;;;;;;33.07;11.90;;;;;;;;;;5028188;28;20435;-64
2023/12/12 05:28:45;;;;;;;33.27;12.07;;;;;;;;;;5033359;28;20056;-63
2023/12/12 05:31:11;;;;;;;34.93;11.80;;;;;;;;;;5028702;28;20025;-63
2023/12/12 05:33:37;;;;;;;43.33;12.03;;;;;;;;;;5029772;28;20034;-62
2023/12/12 05:36:02;;;;;;;37.90;12.27;;;;;;;;;;5030593;28;20112;-62
2023/12/12 05:38:27;;;;;;;38.43;12.20;;;;;;;;;;5032426;28;20057;-64
2023/12/12 05:40:52;;;;;;;42.97;12.97;;;;;;;;;;5034790;28;20065;-63
2023/12/12 05:43:18;;;;;;;38.00;12.70;;;;;;;;;;5028450;28;20055;-63
2023/12/12 05:45:44;;;;;;;46.27;14.10;;;;;;;;;;5034305;28;20501;-64
2023/12/12 05:48:09;;;;;;;42.80;13.23;;;;;;;;;;5036301;28;20026;-61
2023/12/12 05:50:34;;;;;;;41.47;12.73;;;;;;;;;;5031814;28;20038;-63
2023/12/12 05:53:00;;;;;;;37.73;12.73;;;;;;;;;;5033587;28;20033;-64
2023/12/12 05:55:25;;;;;;;40.47;14.23;;;;;;;;;;5031939;28;20064;-63
2023/12/12 05:57:50;;;;;;;36.87;13.50;;;;;;;;;;5032823;28;20029;-63
2023/12/12 06:00:16;;;;;;;37.03;11.57;;;;;;;;;;5031373;28;20029;-63
2023/12/12 06:02:41;;;;;;;32.47;11.53;;;;;;;;;;5034497;28;20044;-64
2023/12/12 06:05:07;;;;;;;33.00;12.13;;;;;;;;;;5037096;28;20132;-62
2023/12/12 06:07:36;;;;;;;32.63;12.30;;;;;;;;;;5036057;28;20026;-62
2023/12/12 06:10:04;;;;;;;54.90;12.87;;;;;;;;;;5037345;28;20037;-64
2023/12/12 06:12:29;;;;;;;76.77;11.83;;;;;;;;;;5034187;28;20029;-62
2023/12/12 06:14:55;;;;;;;88.40;13.13;;;;;;;;;;4991239;28;1232918;-64
2023/12/12 06:17:20;;;;;;;44.23;11.43;;;;;;;;;;5035868;28;20042;-64
2023/12/12 06:19:45;;;;;;;38.93;12.23;;;;;;;;;;5032669;28;20528;-66
2023/12/12 06:22:11;;;;;;;36.87;11.47;;;;;;;;;;5035222;28;20029;-66
2023/12/12 06:24:36;;;;;;;43.80;12.90;;;;;;;;;;5033405;28;20029;-65
2023/12/12 06:27:01;;;;;;;58.30;13.07;;;;;;;;;;5036954;28;20084;-66
2023/12/12 06:29:26;;;;;;;65.57;13.63;;;;;;;;;;5032154;28;20030;-66
2023/12/12 06:31:52;;;;;;;67.47;13.03;;;;;;;;;;5030761;28;20034;-66
2023/12/12 06:34:17;;;;;;;104.23;13.87;;;;;;;;;;5032384;28;20025;-66
2023/12/12 06:36:42;;;;;;;102.57;13.83;;;;;;;;;;5032854;28;20026;-66
2023/12/12 06:39:09;;;;;;;72.43;14.57;;;;;;;;;;5037508;28;20060;-66
2023/12/12 06:41:35;;;;;;;70.27;12.70;;;;;;;;;;5027235;28;20382;-66
2023/12/12 06:44:00;;;;;;;118.07;14.27;;;;;;;;;;5029895;28;20031;-66
2023/12/12 06:46:26;;;;;;;113.20;11.70;;;;;;;;;;5034326;28;20556;-66
2023/12/12 06:48:51;;;;;;;83.30;12.50;;;;;;;;;;5036001;28;20354;-66
2023/12/12 06:51:16;;;;;;;185.17;15.70;;;;;;;;;;5035512;28;20415;-66
2023/12/12 06:53:41;;;;;;;63.00;12.00;;;;;;;;;;5031767;28;20071;-66
2023/12/12 06:56:07;;;;;;;141.93;14.07;;;;;;;;;;5043676;28;20031;-66
2023/12/12 06:58:32;;;;;;;62.43;12.77;;;;;;;;;;5037705;28;20044;-66
2023/12/12 07:00:57;;;;;;;60.70;14.23;;;;;;;;;;5038278;28;20045;-66
2023/12/12 07:03:23;;;;;;;48.27;14.30;;;;;;;;;;5034020;28;20075;-66
2023/12/12 07:05:51;;;;;;;63.70;15.00;;;;;;;;;;5034018;28;20025;-66
2023/12/12 07:08:17;;;;;;;165.27;16.13;;;;;;;;;;5035863;28;20374;-66
2023/12/12 07:10:42;;;;;;;145.70;14.93;;;;;;;;;;5033111;28;20553;-65
2023/12/12 07:13:07;;;;;;;126.47;14.60;;;;;;;;;;5036853;28;20160;-66
2023/12/12 07:15:33;;;;;;;142.70;15.53;;;;;;;;;;5033605;28;20046;-66
2023/12/12 07:17:58;;;;;;;168.00;14.07;;;;;;;;;;5032210;28;20513;-66
2023/12/12 07:20:23;;;;;;;168.27;15.63;;;;;;;;;;5034253;28;20029;-66
2023/12/12 07:22:49;;;;;;;60.93;13.33;;;;;;;;;;5031704;28;20168;-66
2023/12/12 07:25:15;;;;;;;57.47;13.47;;;;;;;;;;5035477;28;20378;-66
2023/12/12 07:27:40;;;;;;;128.03;14.67;;;;;;;;;;5033030;28;20561;-66
2023/12/12 07:30:06;;;;;;;83.80;14.27;;;;;;;;;;5031045;28;20025;-66
2023/12/12 07:32:32;;;;;;;85.47;12.67;;;;;;;;;;5034737;28;20367;-66
2023/12/12 07:34:57;;;;;;;79.87;12.10;;;;;;;;;;5031942;28;20385;-66
2023/12/12 07:37:22;;;;;;;131.37;12.30;;;;;;;;;;5034803;28;20028;-66
2023/12/12 07:39:47;;;;;;;145.67;12.40;;;;;;;;;;5029891;28;20029;-66
2023/12/12 07:42:13;;;;;;;86.17;10.97;;;;;;;;;;5037375;28;20037;-66
2023/12/12 07:44:38;;;;;;;64.63;9.93;;;;;;;;;;5039273;28;20028;-66
2023/12/12 07:47:04;;;;;;;51.33;9.70;;;;;;;;;;5038738;28;20036;-66
2023/12/12 07:49:29;;;;;;;54.90;9.10;;;;;;;;;;5032210;28;20026;-65
2023/12/12 07:51:54;;;;;;;42.57;10.77;;;;;;;;;;5025668;28;20481;-66
2023/12/12 07:54:20;;;;;;;37.83;11.50;;;;;;;;;;5033255;28;20236;-66
2023/12/12 07:56:45;;;;;;;37.20;11.97;;;;;;;;;;5030498;28;20063;-66
2023/12/12 07:59:10;;;;;;;30.83;12.20;;;;;;;;;;5035844;28;20108;-66
2023/12/12 08:01:36;;;;;;;35.40;13.13;;;;;;;;;;5030673;28;20036;-67
2023/12/12 08:04:04;;;;;;;34.73;13.33;;;;;;;;;;5037521;28;20091;-66
2023/12/12 08:06:29;;;;;;;34.87;13.33;;;;;;;;;;5034924;28;20462;-66
2023/12/12 08:08:55;;;;;;;37.50;14.23;;;;;;;;;;5034044;28;20035;-66
2023/12/12 08:11:24;;;;;;;39.77;13.67;;;;;;;;;;5034776;28;20098;-66
2023/12/12 08:13:49;;;;;;;37.90;14.53;;;;;;;;;;5032135;28;20034;-65
2023/12/12 08:16:15;;;;;;;37.60;13.90;;;;;;;;;;5034141;28;20558;-66
2023/12/12 08:18:40;;;;;;;37.83;13.90;;;;;;;;;;5033110;28;20040;-66
2023/12/12 08:21:06;;;;;;;33.63;14.70;;;;;;;;;;5030574;28;20037;-66
2023/12/12 08:23:31;;;;;;;34.17;14.50;;;;;;;;;;5034589;28;20383;-66
2023/12/12 08:25:57;;;;;;;34.13;13.63;;;;;;;;;;5028745;28;20084;-66
2023/12/12 08:28:24;;;;;;;31.83;12.60;;;;;;;;;;5033556;28;20684;-66
2023/12/12 08:30:49;;;;;;;33.87;12.60;;;;;;;;;;5031946;28;20276;-66
2023/12/12 08:33:14;;;;;;;33.43;12.27;;;;;;;;;;5032100;28;20116;-66
2023/12/12 08:35:40;;;;;;;28.53;11.57;;;;;;;;;;5033660;28;20041;-66
2023/12/12 08:38:06;;;;;;;24.87;10.70;;;;;;;;;;5034328;28;20043;-63
2023/12/12 08:40:32;;;;;;;29.20;9.97;;;;;;;;;;5033990;28;20115;-63
2023/12/12 08:42:57;;;;;;;27.23;9.90;;;;;;;;;;5037078;28;20116;-62
2023/12/12 08:45:22;;;;;;;28.00;11.20;;;;;;;;;;5034105;28;20549;-62
2023/12/12 08:47:48;;;;;;;31.40;11.80;;;;;;;;;;5031974;28;20547;-63
2023/12/12 08:50:13;;;;;;;35.67;12.60;;;;;;;;;;5036614;28;20076;-65
2023/12/12 08:52:38;;;;;;;34.27;12.17;;;;;;;;;;5035292;28;20028;-63
2023/12/12 08:55:05;;;;;;;34.87;12.33;;;;;;;;;;5034828;28;20037;-62
2023/12/12 08:57:30;;;;;;;33.17;13.07;;;;;;;;;;5035571;28;20029;-64
2023/12/12 08:59:56;;;;;;;40.13;13.30;;;;;;;;;;5027202;28;20493;-64
2023/12/12 09:02:21;;;;;;;38.00;13.27;;;;;;;;;;5037397;28;20200;-63
2023/12/12 09:04:46;;;;;;;39.07;13.40;;;;;;;;;;5030552;28;20112;-62
2023/12/12 09:07:11;;;;;;;38.43;13.70;;;;;;;;;;5035429;28;20044;-64
2023/12/12 09:09:37;;;;;;;46.27;14.77;;;;;;;;;;5033715;28;20448;-64
2023/12/12 09:12:03;;;;;;;40.37;13.63;;;;;;;;;;5033034;28;20040;-64
2023/12/12 09:14:28;;;;;;;38.43;13.53;;;;;;;;;;5032225;28;20061;-65
2023/12/12 09:16:53;;;;;;;35.50;12.90;;;;;;;;;;5031200;28;20069;-63
2023/12/12 09:19:18;;;;;;;31.60;12.37;;;;;;;;;;5033077;28;20033;-63
2023/12/12 09:21:44;;;;;;;39.40;12.77;;;;;;;;;;5032058;28;20030;-64
2023/12/12 09:24:09;;;;;;;36.80;12.57;;;;;;;;;;5031420;28;20375;-64
2023/12/12 09:26:35;;;;;;;36.77;12.10;;;;;;;;;;5035092;28;20025;-63
2023/12/12 09:29:00;;;;;;;36.73;13.90;;;;;;;;;;5032210;28;20158;-64
2023/12/12 09:31:26;;;;;;;38.77;13.77;;;;;;;;;;5029107;28;20030;-63
2023/12/12 09:33:52;;;;;;;43.37;14.03;;;;;;;;;;5032655;28;20112;-64
2023/12/12 09:36:17;;;;;;;43.37;14.50;;;;;;;;;;5029903;28;20040;-64
2023/12/12 09:38:42;;;;;;;42.17;14.17;;;;;;;;;;5037533;28;20064;-63
2023/12/12 09:41:15;;;;;;;38.63;12.73;;;;;;;;;;5032038;28;20112;-64
2023/12/12 09:43:40;;;;;;;44.37;14.50;;;;;;;;;;5036600;28;20034;-62
2023/12/12 09:46:06;;;;;;;38.37;13.00;;;;;;;;;;5036406;28;20060;-65
2023/12/12 09:48:32;;;;;;;46.60;13.63;;;;;;;;;;5038604;28;20061;-64
2023/12/12 09:50:58;;;;;;;43.53;14.23;;;;;;;;;;5043260;28;20040;-64
2023/12/12 09:53:25;;;;;;;36.20;13.47;;;;;;;;;;5036994;28;20029;-64
2023/12/12 09:55:51;;;;;;;41.47;13.13;;;;;;;;;;5036129;28;20485;-63
2023/12/12 09:58:16;;;;;;;36.70;13.00;;;;;;;;;;5031493;28;20474;-62
2023/12/12 10:00:41;;;;;;;42.87;14.93;;;;;;;;;;5037536;28;20099;-62
2023/12/12 10:03:07;;;;;;;46.13;14.73;;;;;;;;;;5039862;28;20158;-61
2023/12/12 10:05:33;;;;;;;44.77;14.63;;;;;;;;;;5037739;28;20024;-64
2023/12/12 10:07:59;;;;;;;46.77;14.63;;;;;;;;;;5029314;28;20582;-65
2023/12/12 10:10:24;;;;;;;46.23;14.60;;;;;;;;;;5035932;28;20029;-66
2023/12/12 10:12:49;;;;;;;46.07;15.00;;;;;;;;;;5034966;28;20044;-66
2023/12/12 10:15:22;;;;;;;47.93;14.77;;;;;;;;;;5032646;28;20057;-67
2023/12/12 10:17:47;;;;;;;43.63;14.13;;;;;;;;;;5040676;28;20033;-67
2023/12/12 10:20:13;;;;;;;45.93;14.80;;;;;;;;;;5033532;28;20561;-67
2023/12/12 10:22:38;;;;;;;47.07;14.63;;;;;;;;;;5037995;28;20091;-66
2023/12/12 10:25:10;;;;;;;56.97;16.23;;;;;;;;;;5037697;28;20044;-67
2023/12/12 10:27:36;;;;;;;45.03;15.50;;;;;;;;;;5034157;28;20116;-67
2023/12/12 10:30:03;;;;;;;51.13;16.17;;;;;;;;;;5033724;28;20566;-66
2023/12/12 10:32:29;;;;;;;47.37;15.63;;;;;;;;;;5037057;28;20116;-67
2023/12/12 10:34:54;;;;;;;50.03;16.37;;;;;;;;;;5034957;28;20456;-66
2023/12/12 10:37:21;;;;;;;53.93;16.77;;;;;;;;;;5035377;28;20098;-66
2023/12/12 10:39:47;;;;;;;50.20;15.70;;;;;;;;;;5034117;28;20033;-67
2023/12/12 10:42:12;;;;;;;54.27;17.13;;;;;;;;;;5035255;28;20091;-67
2023/12/12 10:44:39;;;;;;;56.97;16.77;;;;;;;;;;5035676;28;20109;-67
2023/12/12 10:47:06;;;;;;;55.93;17.60;;;;;;;;;;5034544;28;20531;-67
2023/12/12 10:49:32;;;;;;;48.97;16.23;;;;;;;;;;5036893;28;20040;-67
2023/12/12 10:52:01;;;;;;;52.37;16.70;;;;;;;;;;5035597;28;20385;-66
2023/12/12 10:54:28;;;;;;;55.57;17.57;;;;;;;;;;5032186;28;20053;-66
2023/12/12 10:56:53;;;;;;;53.07;16.50;;;;;;;;;;5036423;28;20037;-64
2023/12/12 10:59:19;;;;;;;54.43;16.80;;;;;;;;;;5034125;28;20437;-65
2023/12/12 11:01:47;;;;;;;53.10;17.93;;;;;;;;;;5035888;28;20435;-65
2023/12/12 11:04:13;;;;;;;57.17;18.53;;;;;;;;;;5032255;28;20061;-67
2023/12/12 11:06:41;;;;;;;51.83;17.53;;;;;;;;;;5032255;28;20144;-67
2023/12/12 11:09:06;;;;;;;63.43;18.63;;;;;;;;;;5036685;28;20061;-67
2023/12/12 11:11:31;;;;;;;68.33;20.23;;;;;;;;;;5036439;28;20068;-67
2023/12/12 11:14:00;;;;;;;73.33;21.03;;;;;;;;;;5032942;28;20045;-67
2023/12/12 11:16:26;;;;;;;64.47;20.93;;;;;;;;;;5028863;28;20128;-67
2023/12/12 11:18:52;;;;;;;66.43;20.33;;;;;;;;;;5034574;28;20056;-67
2023/12/12 11:21:36;;;;;;;61.97;20.77;;;;;;;;;;5035643;28;20493;-67
2023/12/12 11:24:02;;;;;;;63.77;20.47;;;;;;;;;;5030524;28;20107;-67
2023/12/12 11:26:27;;;;;;;75.43;23.03;;;;;;;;;;5029436;28;20021;-65
2023/12/12 11:28:54;;;;;;;57.13;19.83;;;;;;;;;;5033116;28;20033;-64
2023/12/12 11:31:26;;;;;;;60.17;21.10;;;;;;;;;;5035769;28;20105;-64
2023/12/12 11:34:01;;;;;;;67.87;23.07;;;;;;;;;;5031554;28;20033;-65
2023/12/12 11:36:27;;;;;;;70.93;23.93;;;;;;;;;;5030852;28;20330;-64
2023/12/12 11:38:54;;;;;;;71.37;23.77;;;;;;;;;;5031352;28;20037;-64
2023/12/12 11:41:19;;;;;;;72.03;25.47;;;;;;;;;;5037162;28;20124;-65
2023/12/12 11:43:45;;;;;;;77.20;24.33;;;;;;;;;;5033670;28;20453;-64
2023/12/12 11:46:23;;;;;;;68.63;24.13;;;;;;;;;;5031335;28;20036;-66
2023/12/12 11:48:49;;;;;;;70.13;23.87;;;;;;;;;;5033961;28;20032;-67
2023/12/12 11:51:40;;;;;;;74.90;23.27;;;;;;;;;;5033649;28;20037;-67
2023/12/12 11:54:06;;;;;;;60.45;21.58;;;;;;;;;;5034149;28;20037;-64
2023/12/12 11:56:32;;;;;;;61.17;22.97;;;;;;;;;;5031243;28;20065;-64
2023/12/12 11:58:58;;;;;;;58.40;21.67;;;;;;;;;;5035506;28;20033;-64
2023/12/12 12:01:25;;;;;;;59.00;22.17;;;;;;;;;;5032558;28;20094;-64
2023/12/12 12:03:51;;;;;;;51.03;19.20;;;;;;;;;;5033240;28;20067;-64
2023/12/12 12:06:17;;;;;;;58.93;21.80;;;;;;;;;;5034687;28;20037;-64
2023/12/12 12:08:42;;;;;;;58.60;22.33;;;;;;;;;;5035886;28;20060;-64
2023/12/12 12:11:07;;;;;;;47.73;18.13;;;;;;;;;;5032887;28;20034;-64
2023/12/12 12:13:39;;;;;;;52.93;19.57;;;;;;;;;;5036339;28;20025;-64
2023/12/12 12:16:04;;;;;;;50.20;18.40;;;;;;;;;;5033924;28;20033;-64
2023/12/12 12:18:30;;;;;;;46.77;18.60;;;;;;;;;;5033599;28;20033;-64
2023/12/12 12:20:56;;;;;;;48.10;18.30;;;;;;;;;;5034282;28;20488;-65
2023/12/12 12:23:22;;;;;;;42.77;16.83;;;;;;;;;;5033136;28;20120;-65
2023/12/12 12:25:47;;;;;;;55.97;21.07;;;;;;;;;;5028093;28;20132;-65
2023/12/12 12:28:13;;;;;;;50.53;21.37;;;;;;;;;;5033541;28;20029;-65
2023/12/12 12:30:45;;;;;;;59.20;21.53;;;;;;;;;;5035747;28;20503;-65
2023/12/12 12:33:11;;;;;;;57.87;21.13;;;;;;;;;;5032936;28;20029;-65
2023/12/12 12:35:37;;;;;;;49.90;20.67;;;;;;;;;;5026667;28;20031;-65
2023/12/12 12:38:21;;;;;;;50.17;18.93;;;;;;;;;;5033155;28;20037;-65
2023/12/12 12:40:47;;;;;;;49.80;20.00;;;;;;;;;;5033763;28;20025;-66
2023/12/12 12:43:17;;;;;;;50.70;20.63;;;;;;;;;;5031817;28;20499;-65
2023/12/12 12:45:42;;;;;;;49.37;17.73;;;;;;;;;;5028154;28;20037;-65
2023/12/12 12:48:08;;;;;;;49.30;20.33;;;;;;;;;;5030617;28;20104;-65
2023/12/12 12:50:33;;;;;;;49.37;19.93;;;;;;;;;;5034529;28;20851;-66
2023/12/12 12:52:58;;;;;;;57.90;20.00;;;;;;;;;;5033609;28;20121;-65
2023/12/12 12:55:24;;;;;;;57.57;20.67;;;;;;;;;;5030455;28;20041;-65
2023/12/12 12:57:49;;;;;;;56.67;21.37;;;;;;;;;;5032308;28;20041;-65
2023/12/12 13:00:17;;;;;;;53.60;20.93;;;;;;;;;;5031340;28;20033;-66
2023/12/12 13:02:42;;;;;;;57.93;21.40;;;;;;;;;;5034875;28;20050;-66
2023/12/12 13:05:08;;;;;;;46.93;19.03;;;;;;;;;;5032468;28;20033;-66
2023/12/12 13:07:33;;;;;;;53.73;19.93;;;;;;;;;;5032450;28;20033;-66
2023/12/12 13:10:00;;;;;;;48.37;18.40;;;;;;;;;;5032809;28;20060;-66
2023/12/12 13:12:26;;;;;;;47.07;18.17;;;;;;;;;;5033177;28;20083;-66
2023/12/12 13:14:53;;;;;;;48.40;19.27;;;;;;;;;;5037938;28;20068;-66
2023/12/12 13:17:18;;;;;;;43.93;18.27;;;;;;;;;;5038280;28;20040;-66
2023/12/12 13:19:43;;;;;;;50.87;19.53;;;;;;;;;;5035779;28;20342;-62
2023/12/12 13:22:09;;;;;;;56.10;20.67;;;;;;;;;;5036057;28;20040;-62
2023/12/12 13:24:34;;;;;;;45.37;18.30;;;;;;;;;;5035934;28;20033;-64
2023/12/12 13:26:59;;;;;;;42.13;17.23;;;;;;;;;;5040092;28;20040;-63
2023/12/12 13:29:24;;;;;;;53.47;20.97;;;;;;;;;;5034854;28;20037;-65
2023/12/12 13:31:50;;;;;;;52.07;18.00;;;;;;;;;;5032749;28;20029;-62
2023/12/12 13:34:15;;;;;;;47.67;19.63;;;;;;;;;;5030997;28;20600;-62
2023/12/12 13:36:41;;;;;;;44.47;17.00;;;;;;;;;;5035629;28;20071;-64
2023/12/12 13:39:12;;;;;;;47.17;19.33;;;;;;;;;;5035004;28;20029;-63
2023/12/12 13:41:37;;;;;;;43.43;17.93;;;;;;;;;;5032123;28;20029;-64
2023/12/12 13:44:03;;;;;;;29.40;12.43;;;;;;;;;;5030092;28;20390;-65
2023/12/12 13:46:28;;;;;;;43.13;17.73;;;;;;;;;;5035546;28;20029;-63
2023/12/12 13:48:55;;;;;;;44.93;17.73;;;;;;;;;;5039350;28;20033;-63
2023/12/12 13:51:21;;;;;;;41.23;17.33;;;;;;;;;;5035906;28;20516;-64
2023/12/12 13:53:46;;;;;;;48.93;19.53;;;;;;;;;;5036655;28;20029;-64
2023/12/12 13:56:12;;;;;;;53.93;18.47;;;;;;;;;;5038250;28;20068;-62
2023/12/12 13:58:37;;;;;;;49.20;18.37;;;;;;;;;;5036265;28;20039;-63
2023/12/12 14:01:02;;;;;;;46.03;18.27;;;;;;;;;;5038214;28;20037;-63
2023/12/12 14:03:28;;;;;;;49.97;18.90;;;;;;;;;;5033223;28;20112;-64
2023/12/12 14:05:53;;;;;;;44.73;17.13;;;;;;;;;;5036719;28;20489;-64
2023/12/12 14:08:18;;;;;;;46.90;16.10;;;;;;;;;;5035975;28;20034;-64
2023/12/12 14:10:43;;;;;;;46.23;17.27;;;;;;;;;;5036712;28;20105;-62
2023/12/12 14:13:09;;;;;;;46.90;18.73;;;;;;;;;;5037114;28;20436;-62